Time;durP1;ratioP1;P1;durP2;ratioP2;P2;SDS_P1;SDS_P2;PMS_P1;PMS_P2;Temp;Humidity;BMP_temperature;BMP_pressure;BME280_temperature;BME280_humidity;BME280_pressure;Samples;Min_cycle;Max_cycle;Signal;HPM_P1;HPM_P2
2023/09/14 00:01:16;;;;;;;3.13;2.17;;;;;;;18.87;66.43;100161.34;30972161;28;97127;-68
2023/09/14 00:16:16;;;;;;;3.75;2.38;;;;;;;18.82;66.69;100163.09;30971064;28;96764;-68
2023/09/14 00:31:16;;;;;;;3.75;2.28;;;;;;;18.69;67.01;100169.47;30970688;28;97195;-69
2023/09/14 00:46:17;;;;;;;3.13;2.17;;;;;;;18.48;67.88;100178.78;30969619;28;97120;-63
2023/09/14 01:01:17;;;;;;;3.70;2.38;;;;;;;18.21;68.66;100179.88;30966606;28;97409;-65
2023/09/14 01:16:30;;;;;;;3.47;2.63;;;;;;;17.94;69.40;100179.28;30966720;28;97196;-62
2023/09/14 01:31:31;;;;;;;3.37;2.73;;;;;;;17.77;70.25;100189.75;30964520;28;98612;-69
2023/09/14 01:46:32;;;;;;;4.03;2.67;;;;;;;17.62;70.91;100181.97;30963527;28;97184;-66
2023/09/14 02:01:33;;;;;;;4.03;2.90;;;;;;;17.57;71.51;100197.94;30961608;28;96734;-64
2023/09/14 02:16:33;;;;;;;4.55;3.10;;;;;;;17.53;71.99;100211.00;31000292;28;97368;-62
2023/09/14 02:31:34;;;;;;;6.75;2.95;;;;;;;17.70;72.47;100214.03;31000988;28;97442;-68
2023/09/14 02:46:34;;;;;;;10.70;5.22;;;;;;;17.75;72.59;100229.53;30998854;28;97119;-65
2023/09/14 03:01:35;;;;;;;8.07;3.70;;;;;;;17.79;72.81;100255.00;30996551;28;97457;-65
2023/09/14 03:16:35;;;;;;;5.53;3.65;;;;;;;17.82;73.07;100273.41;30990023;28;96747;-66
2023/09/14 03:31:35;;;;;;;6.18;3.88;;;;;;;17.93;73.20;100270.09;30974278;28;96662;-66
2023/09/14 03:46:36;;;;;;;5.75;4.00;;;;;;;17.85;73.25;100281.09;30971892;28;97246;-66
2023/09/14 04:01:36;;;;;;;5.88;4.38;;;;;;;17.96;73.51;100308.41;30969965;28;97096;-67
2023/09/14 04:16:36;;;;;;;7.57;4.80;;;;;;;17.99;73.57;100326.84;30967263;28;97627;-68
2023/09/14 04:31:37;;;;;;;7.30;5.20;;;;;;;17.93;73.64;100340.16;30966867;28;96868;-62
2023/09/14 04:46:38;;;;;;;6.57;5.03;;;;;;;18.02;73.26;100358.78;30963555;28;97452;-67
2023/09/14 05:01:38;;;;;;;9.52;5.25;;;;;;;17.87;73.33;100377.88;30962911;28;96803;-63
2023/09/14 05:16:38;;;;;;;8.23;5.22;;;;;;;17.74;73.91;100389.53;30962431;28;97220;-64
2023/09/14 05:31:39;;;;;;;6.28;4.55;;;;;;;17.54;74.51;100408.47;30961733;28;97361;-62
2023/09/14 05:46:39;;;;;;;4.15;3.00;;;;;;;17.52;74.79;100424.84;30956096;28;96711;-68
2023/09/14 06:01:40;;;;;;;4.78;3.60;;;;;;;17.45;75.25;100440.16;30954335;28;97252;-65
2023/09/14 06:16:40;;;;;;;4.53;3.30;;;;;;;17.29;75.20;100462.13;30955303;28;96747;-63
2023/09/14 06:31:41;;;;;;;5.25;3.10;;;;;;;17.19;75.30;100457.16;30956584;28;96833;-68
2023/09/14 06:46:41;;;;;;;3.22;2.15;;;;;;;17.10;74.82;100483.47;30954662;28;97243;-65
2023/09/14 07:01:41;;;;;;;5.60;2.67;;;;;;;17.07;75.01;100510.78;30971888;28;97316;-67
2023/09/14 07:16:42;;;;;;;4.53;2.10;;;;;;;17.01;75.23;100530.47;30973282;28;97518;-67
2023/09/14 07:31:42;;;;;;;5.07;2.33;;;;;;;17.58;74.62;100547.88;30971990;28;97561;-63
2023/09/14 07:46:43;;;;;;;5.13;2.67;;;;;;;18.24;73.00;100554.22;30968245;28;96798;-68
2023/09/14 08:01:43;;;;;;;6.32;3.45;;;;;;;18.72;72.47;100562.97;30967276;28;97538;-63
2023/09/14 08:16:44;;;;;;;;;;;;;;;18.75;71.75;100584.13;30965585;28;97232;-63
2023/09/14 08:31:48;;;;;;;7.90;3.42;;;;;;;20.16;69.83;100589.41;30966743;28;96809;-65
2023/09/14 08:46:50;;;;;;;6.27;2.70;;;;;;;23.89;65.54;100601.16;30966017;28;97020;-68
2023/09/14 09:01:50;;;;;;;8.27;2.83;;;;;;;23.98;58.04;100610.56;30962475;28;97588;-67
2023/09/14 09:16:50;;;;;;;6.47;2.90;;;;;;;22.60;58.50;100601.56;30961210;28;97114;-70
2023/09/14 09:31:51;;;;;;;;;;;;;;;21.90;57.71;100613.31;30960792;28;96815;-66
2023/09/14 09:46:56;;;;;;;8.13;3.38;;;;;;;20.92;60.18;100614.31;30959697;28;97215;-64
2023/09/14 10:01:56;;;;;;;4.63;2.70;;;;;;;22.72;58.84;100615.13;30955307;28;97498;-69
2023/09/14 10:17:01;;;;;;;5.75;3.22;;;;;;;24.57;51.34;100611.91;30955439;28;96788;-63
2023/09/14 10:32:05;;;;;;;5.37;3.10;;;;;;;27.36;48.48;100604.56;30968462;28;97136;-70
2023/09/14 10:47:06;;;;;;;5.83;2.13;;;;;;;27.24;44.45;100606.69;30977323;28;97197;-64
2023/09/14 11:02:07;;;;;;;4.03;2.10;;;;;;;26.40;42.88;100620.38;30974525;28;96725;-64
2023/09/14 11:17:22;;;;;;;5.68;2.60;;;;;;;23.74;46.55;100636.28;30971069;28;97093;-70
2023/09/14 11:32:26;;;;;;;5.40;2.80;;;;;;;22.71;48.94;100624.31;30971105;28;97217;-68
2023/09/14 11:47:28;;;;;;;4.70;2.70;;;;;;;22.93;47.66;100637.25;30967802;28;97396;-64
2023/09/14 12:02:29;;;;;;;4.50;2.70;;;;;;;23.62;47.03;100650.78;30968634;28;97083;-66
2023/09/14 12:17:30;;;;;;;8.10;2.50;;;;;;;24.52;46.07;100651.88;30967234;28;96713;-63
2023/09/14 12:32:30;;;;;;;4.22;2.55;;;;;;;28.74;37.02;100653.91;30965826;28;97165;-66
2023/09/14 12:47:31;;;;;;;7.45;3.08;;;;;;;25.65;40.99;100651.22;30963786;28;97507;-63
2023/09/14 13:02:35;;;;;;;5.32;2.85;;;;;;;26.25;40.34;100653.06;30959725;28;97450;-70
2023/09/14 13:17:35;;;;;;;5.50;2.70;;;;;;;26.47;38.98;100655.66;30962618;28;97380;-65
2023/09/14 13:32:40;;;;;;;6.30;2.95;;;;;;;24.16;42.67;100654.91;30961717;28;97184;-66
2023/09/14 13:47:43;;;;;;;6.73;3.23;;;;;;;23.46;44.47;100651.59;30958812;28;96969;-68
2023/09/14 14:02:53;;;;;;;4.57;2.77;;;;;;;22.02;46.88;100648.56;30957660;28;96797;-66
2023/09/14 14:17:56;;;;;;;;;;;;;;;22.04;47.89;100635.59;30958740;28;96884;-66
2023/09/14 14:32:56;;;;;;;7.03;3.20;;;;;;;23.38;46.44;100628.34;30957327;28;97458;-67
2023/09/14 14:47:57;;;;;;;5.55;2.88;;;;;;;23.97;45.12;100624.41;30955830;28;97041;-66
2023/09/14 15:02:57;;;;;;;8.48;3.60;;;;;;;23.21;46.63;100641.06;30953962;28;97277;-69
2023/09/14 15:17:57;;;;;;;6.00;3.13;;;;;;;22.94;46.48;100636.19;30964491;28;97432;-69
2023/09/14 15:32:58;;;;;;;;;;;;;;;22.28;47.59;100652.69;30971153;28;97119;-65
2023/09/14 15:47:58;;;;;;;9.07;3.42;;;;;;;21.49;48.82;100656.47;30971022;28;97105;-66
2023/09/14 16:02:58;;;;;;;5.07;2.70;;;;;;;20.86;49.34;100668.56;30967887;28;97187;-66
2023/09/14 16:17:59;;;;;;;9.87;4.13;;;;;;;20.27;50.56;100677.06;30965792;28;97713;-69
2023/09/14 16:33:01;;;;;;;4.43;2.80;;;;;;;20.00;51.08;100677.31;30962321;28;96755;-64
2023/09/14 16:48:03;;;;;;;5.73;4.13;;;;;;;19.51;52.27;100673.50;30963020;28;97630;-65
2023/09/14 17:03:04;;;;;;;4.83;2.63;;;;;;;19.19;53.24;100677.00;30964082;28;97216;-63
2023/09/14 17:18:05;;;;;;;7.65;2.92;;;;;;;19.01;53.91;100690.38;30964623;28;97193;-63
2023/09/14 17:33:05;;;;;;;;;;;;;;;18.88;54.56;100691.25;30961371;28;97335;-67
2023/09/14 17:48:06;;;;;;;5.40;3.20;;;;;;;18.70;55.22;100702.66;30962333;28;97182;-68
2023/09/14 18:03:06;;;;;;;6.40;3.25;;;;;;;18.63;55.83;100709.97;30959247;28;96668;-63
2023/09/14 18:18:07;;;;;;;4.97;3.53;;;;;;;18.50;56.41;100724.31;30957613;28;96648;-63
2023/09/14 18:33:07;;;;;;;9.15;3.38;;;;;;;18.33;56.64;100738.25;30955907;28;96715;-62
2023/09/14 18:48:09;;;;;;;7.63;3.70;;;;;;;17.79;57.62;100748.09;30958965;28;97162;-67
2023/09/14 19:03:09;;;;;;;8.50;4.07;;;;;;;17.31;58.80;100753.56;30975164;28;96965;-70
2023/09/14 19:18:10;;;;;;;7.70;4.70;;;;;;;16.88;60.07;100758.09;30975594;28;97433;-76
2023/09/14 19:33:11;;;;;;;7.30;3.97;;;;;;;16.57;61.39;100759.31;30974891;28;97109;-76
2023/09/14 19:48:12;;;;;;;6.97;4.25;;;;;;;16.34;62.41;100766.81;30972199;28;97402;-71
2023/09/14 20:03:12;;;;;;;7.97;4.60;;;;;;;16.00;62.95;100776.41;30970429;28;96729;-70
2023/09/14 20:18:13;;;;;;;11.35;5.07;;;;;;;15.65;64.30;100781.59;30967317;28;97519;-69
2023/09/14 20:33:13;;;;;;;10.77;5.32;;;;;;;15.50;65.09;100768.19;30965809;28;96864;-68
2023/09/14 20:48:14;;;;;;;7.78;5.05;;;;;;;15.46;65.99;100769.59;30966643;28;97108;-64
2023/09/14 21:03:16;;;;;;;6.10;4.00;;;;;;;15.56;66.28;100772.81;30966392;28;96692;-68
2023/09/14 21:18:17;;;;;;;10.47;5.13;;;;;;;15.56;66.48;100789.75;30963245;28;97065;-75
2023/09/14 21:33:17;;;;;;;7.53;4.30;;;;;;;15.22;66.76;100779.63;30964513;28;97809;-73
2023/09/14 21:48:18;;;;;;;8.57;4.47;;;;;;;14.99;67.09;100779.72;30963241;28;97189;-73
2023/09/14 22:03:18;;;;;;;8.23;3.95;;;;;;;14.72;67.67;100777.50;30961734;28;97230;-74
2023/09/14 22:18:19;;;;;;;7.18;4.40;;;;;;;14.44;68.45;100787.94;30960799;28;97428;-72
2023/09/14 22:33:19;;;;;;;8.15;4.82;;;;;;;14.41;69.45;100791.00;30978674;28;97535;-73
2023/09/14 22:48:19;;;;;;;8.10;5.45;;;;;;;14.51;69.80;100788.06;30979841;28;97505;-72
2023/09/14 23:03:20;;;;;;;12.18;9.13;;;;;;;14.63;69.76;100773.22;30977971;28;97666;-72
2023/09/14 23:18:20;;;;;;;11.43;9.02;;;;;;;14.74;70.31;100769.28;30977516;28;96759;-73
2023/09/14 23:33:22;;;;;;;13.05;8.25;;;;;;;14.78;70.44;100773.25;30975412;28;96673;-75
2023/09/14 23:48:23;;;;;;;11.93;8.47;;;;;;;14.86;70.41;100767.78;30974700;28;97686;-71
